Terminal Aerodrome Forecast
Issued by NWS

Home | Current Version | Previous Version | Text Only | Print | Product List | Glossary On
Versions: 1 2 3 4 5 6 7 8 9 10 11 12 13 14 15 16 17 18 19 20 21 22 23 24 25 26 27 28 29 30 31 32 33 34 35 36
000
FTUS44 KLIX 251724
TAFHUM
TAF
KHUM 251724Z 2518/2618 22011KT 6SM HZ VCTS BKN015CB
      TEMPO 2518/2520 VRB20G30KT 1SM TSRA OVC010CB
     FM260000 23005KT P6SM BKN120
     FM260600 VRB03KT 4SM BR SCT007
     FM261000 VRB03KT 2SM BR OVC007
     FM261500 20005KT P6SM BKN020=

USA.gov is the U.S. government's official web portal to all federal, state and local government web resources and services.